createdAt,value
2022-08-31T00:01:20.890Z,87.50
2022-08-31T00:04:03.747Z,87.40
2022-08-31T00:06:31.921Z,87.20
2022-08-31T00:08:58.935Z,87.70
2022-08-31T00:11:30.463Z,88.10
2022-08-31T00:13:58.773Z,88.00
2022-08-31T00:16:26.840Z,88.10
2022-08-31T00:18:53.873Z,88.30
2022-08-31T00:21:22.179Z,88.20
2022-08-31T00:23:49.076Z,88.30
2022-08-31T00:26:16.424Z,88.20
2022-08-31T00:28:43.473Z,87.70
2022-08-31T00:31:12.968Z,87.50
2022-08-31T00:33:39.991Z,87.20
2022-08-31T00:36:08.811Z,87.10
2022-08-31T00:38:35.779Z,86.90
2022-08-31T00:41:02.536Z,86.80
2022-08-31T00:43:44.447Z,86.90
2022-08-31T00:46:12.528Z,87.00
2022-08-31T00:48:42.981Z,87.10
2022-08-31T00:51:09.741Z,87.00
2022-08-31T00:53:38.208Z,87.10
2022-08-31T00:56:04.994Z,87.20
2022-08-31T00:58:31.740Z,87.20
2022-08-31T01:00:59.435Z,87.40
2022-08-31T01:03:26.259Z,87.50
2022-08-31T01:05:53.028Z,87.40
2022-08-31T01:08:19.838Z,87.00
2022-08-31T01:10:48.351Z,86.80
2022-08-31T01:13:15.136Z,86.60
2022-08-31T01:15:48.836Z,86.50
2022-08-31T01:18:20.691Z,86.70
2022-08-31T01:20:54.825Z,86.70
2022-08-31T01:23:23.902Z,86.90
2022-08-31T01:25:50.663Z,86.90
2022-08-31T01:28:17.478Z,87.10
2022-08-31T01:30:44.630Z,87.20
2022-08-31T01:33:13.283Z,87.20
2022-08-31T01:35:41.649Z,87.20
2022-08-31T01:38:10.689Z,87.20
2022-08-31T01:40:44.503Z,87.30
2022-08-31T01:43:11.374Z,87.10
2022-08-31T01:45:38.226Z,86.80
2022-08-31T01:48:05.086Z,86.50
2022-08-31T01:50:31.849Z,86.60
2022-08-31T01:52:58.624Z,86.70
2022-08-31T01:55:25.418Z,86.70
2022-08-31T01:57:52.245Z,86.90
2022-08-31T02:00:19.086Z,86.90
2022-08-31T02:02:45.901Z,87.00
2022-08-31T02:05:14.464Z,87.00
2022-08-31T02:07:41.987Z,87.20
2022-08-31T02:10:09.062Z,87.40
2022-08-31T02:12:35.856Z,87.50
2022-08-31T02:15:02.644Z,87.60
2022-08-31T02:17:29.429Z,87.10
2022-08-31T02:19:56.265Z,87.10
2022-08-31T02:22:23.055Z,86.70
2022-08-31T02:24:49.856Z,86.80
2022-08-31T02:27:16.661Z,86.80
2022-08-31T02:29:43.428Z,86.90
2022-08-31T02:32:20.058Z,87.70
2022-08-31T02:34:48.445Z,87.10
2022-08-31T02:37:15.338Z,87.20
2022-08-31T02:39:44.334Z,87.30
2022-08-31T02:42:11.262Z,87.50
2022-08-31T02:44:38.031Z,87.70
2022-08-31T02:47:04.881Z,88.10
2022-08-31T02:49:34.702Z,87.70
2022-08-31T02:52:01.492Z,87.60
2022-08-31T02:54:28.441Z,87.50
2022-08-31T02:56:55.235Z,87.00
2022-08-31T02:59:24.210Z,87.00
2022-08-31T03:01:52.858Z,87.00
2022-08-31T03:04:19.743Z,87.10
2022-08-31T03:06:47.815Z,87.30
2022-08-31T03:09:15.904Z,87.40
2022-08-31T03:11:42.944Z,87.40
2022-08-31T03:14:09.796Z,87.50
2022-08-31T03:16:38.282Z,87.60
2022-08-31T03:19:05.060Z,87.60
2022-08-31T03:21:31.839Z,87.90
2022-08-31T03:23:58.648Z,88.00
2022-08-31T03:26:25.393Z,88.00
2022-08-31T03:28:52.180Z,87.80
2022-08-31T03:31:19.006Z,87.50
2022-08-31T03:33:46.055Z,87.10
2022-08-31T03:36:15.736Z,87.20
2022-08-31T03:38:42.747Z,87.50
2022-08-31T03:41:09.652Z,87.50
2022-08-31T03:43:36.633Z,87.60
2022-08-31T03:46:06.141Z,87.80
2022-08-31T03:48:38.736Z,87.80
2022-08-31T03:51:07.043Z,88.10
2022-08-31T03:53:35.243Z,88.20
2022-08-31T03:56:03.849Z,88.60
2022-08-31T03:58:31.389Z,88.50
2022-08-31T04:00:58.168Z,88.30
2022-08-31T04:03:24.930Z,88.10
2022-08-31T04:05:51.717Z,87.90
2022-08-31T04:08:19.464Z,87.50
2022-08-31T04:10:48.538Z,87.60
2022-08-31T04:13:15.314Z,87.60
2022-08-31T04:15:42.250Z,88.00
2022-08-31T04:18:09.046Z,88.00
2022-08-31T04:20:36.536Z,88.10
2022-08-31T04:23:03.718Z,88.20
2022-08-31T04:25:30.531Z,88.50
2022-08-31T04:27:58.200Z,88.30
2022-08-31T04:30:25.475Z,88.50
2022-08-31T04:32:53.433Z,88.30
2022-08-31T04:35:20.283Z,88.10
2022-08-31T04:37:47.574Z,88.10
2022-08-31T04:40:25.650Z,87.90
2022-08-31T04:42:53.114Z,87.70
2022-08-31T04:45:20.177Z,87.70
2022-08-31T04:47:46.980Z,88.00
2022-08-31T04:50:14.678Z,88.60
2022-08-31T04:52:42.436Z,89.50
2022-08-31T04:55:11.373Z,89.40
2022-08-31T04:57:41.757Z,89.70
2022-08-31T05:00:09.573Z,90.00
2022-08-31T05:02:39.343Z,90.20
2022-08-31T05:05:06.665Z,90.50
2022-08-31T05:07:33.432Z,90.20
2022-08-31T05:10:01.428Z,89.90
2022-08-31T05:12:28.274Z,90.20
2022-08-31T05:14:55.057Z,89.90
2022-08-31T05:17:22.444Z,89.60
2022-08-31T05:19:51.921Z,88.10
2022-08-31T05:22:20.049Z,88.20
2022-08-31T05:24:48.807Z,87.50
2022-08-31T05:27:16.420Z,86.00
2022-08-31T05:29:43.183Z,86.20
2022-08-31T05:32:10.247Z,86.40
2022-08-31T05:34:38.874Z,88.20
2022-08-31T05:37:05.742Z,89.60
2022-08-31T05:39:33.446Z,90.10
2022-08-31T05:42:00.534Z,90.70
2022-08-31T05:44:28.861Z,90.30
2022-08-31T05:47:03.811Z,90.50
2022-08-31T05:49:32.231Z,89.90
2022-08-31T05:51:59.860Z,89.70
2022-08-31T05:54:27.495Z,88.70
2022-08-31T05:56:54.870Z,89.90
2022-08-31T05:59:28.358Z,89.30
2022-08-31T06:01:55.679Z,88.60
2022-08-31T06:04:22.498Z,90.10
2022-08-31T06:06:49.933Z,90.20
2022-08-31T06:09:16.723Z,89.30
2022-08-31T06:11:43.790Z,88.80
2022-08-31T06:14:10.951Z,88.80
2022-08-31T06:16:37.879Z,88.70
2022-08-31T06:19:07.183Z,89.00
2022-08-31T06:21:35.959Z,88.70
2022-08-31T06:24:03.343Z,88.40
2022-08-31T06:26:31.412Z,88.00
2022-08-31T06:29:00.399Z,87.40
2022-08-31T06:31:32.507Z,88.00
2022-08-31T06:33:59.621Z,89.90
2022-08-31T06:36:28.225Z,90.50
2022-08-31T06:38:56.068Z,89.50
2022-08-31T06:41:27.148Z,90.00
2022-08-31T06:43:54.331Z,87.30
2022-08-31T06:46:21.731Z,68.60
2022-08-31T06:48:50.706Z,68.40
2022-08-31T06:51:17.542Z,70.90
2022-08-31T06:53:44.408Z,72.70
2022-08-31T06:56:16.640Z,73.80
2022-08-31T06:58:53.879Z,74.40
2022-08-31T07:01:35.994Z,73.60
2022-08-31T07:04:07.971Z,73.40
2022-08-31T07:06:36.622Z,74.20
2022-08-31T07:09:04.575Z,73.60
2022-08-31T07:11:34.256Z,73.90
2022-08-31T07:14:01.322Z,74.50
2022-08-31T07:16:28.353Z,74.60
2022-08-31T07:18:57.667Z,74.30
2022-08-31T07:21:26.871Z,74.10
2022-08-31T07:23:54.282Z,74.50
2022-08-31T07:26:29.267Z,74.50
2022-08-31T07:28:57.877Z,74.20
2022-08-31T07:31:27.316Z,74.50
2022-08-31T07:33:56.106Z,74.10
2022-08-31T07:36:24.152Z,74.20
2022-08-31T07:39:09.932Z,74.20
2022-08-31T07:41:55.336Z,74.10
2022-08-31T07:44:23.222Z,74.30
2022-08-31T07:46:51.051Z,74.50
2022-08-31T07:49:19.867Z,74.70
2022-08-31T07:51:50.534Z,74.70
2022-08-31T07:54:28.421Z,74.50
2022-08-31T07:57:03.307Z,74.50
2022-08-31T07:59:32.952Z,76.60
2022-08-31T08:02:04.093Z,77.20
2022-08-31T08:04:31.043Z,77.00
2022-08-31T08:07:00.382Z,77.80
2022-08-31T08:09:29.418Z,76.70
2022-08-31T08:12:01.296Z,76.60
2022-08-31T08:14:30.206Z,76.80
2022-08-31T08:16:57.201Z,77.60
2022-08-31T08:19:24.272Z,77.10
2022-08-31T08:21:51.095Z,77.10
2022-08-31T08:24:19.758Z,76.80
2022-08-31T08:26:53.439Z,77.10
2022-08-31T08:29:21.186Z,77.50
2022-08-31T08:31:52.155Z,77.30
2022-08-31T08:34:20.454Z,77.20
2022-08-31T08:36:47.555Z,77.90
2022-08-31T08:39:14.345Z,79.00
2022-08-31T08:41:41.940Z,79.30
2022-08-31T08:44:12.837Z,78.40
2022-08-31T08:46:57.468Z,77.70
2022-08-31T08:49:49.851Z,77.70
2022-08-31T08:52:41.626Z,78.10
2022-08-31T08:55:17.181Z,77.70
2022-08-31T08:57:45.998Z,77.60
2022-08-31T09:00:25.013Z,77.50
2022-08-31T09:03:11.319Z,77.40
2022-08-31T09:05:48.539Z,78.80
2022-08-31T09:08:43.505Z,78.70
2022-08-31T09:11:18.733Z,78.30
2022-08-31T09:14:09.808Z,77.90
2022-08-31T09:17:09.944Z,78.30
2022-08-31T09:19:58.229Z,77.90
2022-08-31T09:22:25.044Z,78.00
2022-08-31T09:24:56.186Z,78.10
2022-08-31T09:27:47.027Z,78.00
2022-08-31T09:30:32.106Z,78.70
2022-08-31T09:32:58.942Z,78.00
2022-08-31T09:35:40.630Z,78.20
2022-08-31T09:38:12.482Z,78.30
2022-08-31T09:40:44.695Z,78.00
2022-08-31T09:43:23.838Z,78.10
2022-08-31T09:46:26.158Z,78.70
2022-08-31T09:48:56.173Z,78.80
2022-08-31T09:51:31.151Z,78.60
2022-08-31T09:54:34.156Z,78.90
2022-08-31T09:57:02.574Z,79.10
2022-08-31T09:59:48.597Z,79.50
2022-08-31T10:02:26.684Z,79.00
2022-08-31T10:04:58.447Z,78.20
2022-08-31T10:07:28.809Z,79.30
2022-08-31T10:10:31.780Z,78.60
2022-08-31T10:13:01.874Z,78.10
2022-08-31T10:15:33.542Z,78.80
2022-08-31T10:18:14.247Z,78.40
2022-08-31T10:20:48.600Z,78.00
2022-08-31T10:23:27.105Z,78.20
2022-08-31T10:26:00.037Z,78.10
2022-08-31T10:28:49.737Z,78.10
2022-08-31T10:31:30.099Z,78.00
2022-08-31T10:34:17.770Z,78.00
2022-08-31T10:36:44.697Z,77.90
2022-08-31T10:39:40.088Z,78.00
2022-08-31T10:42:15.855Z,78.00
2022-08-31T10:44:57.419Z,78.60
2022-08-31T10:47:33.110Z,78.00
2022-08-31T10:50:03.191Z,78.20
2022-08-31T10:52:43.009Z,78.40
2022-08-31T10:55:15.137Z,78.20
2022-08-31T10:57:51.052Z,78.10
2022-08-31T11:00:41.264Z,78.60
2022-08-31T11:03:26.043Z,78.80
2022-08-31T11:06:26.235Z,79.30
2022-08-31T11:09:33.574Z,79.60
2022-08-31T11:12:08.884Z,79.80
2022-08-31T11:14:58.504Z,79.90
2022-08-31T11:17:42.981Z,80.00
2022-08-31T11:20:40.874Z,80.00
2022-08-31T11:23:18.692Z,80.10
2022-08-31T11:26:07.107Z,80.20
2022-08-31T11:28:36.004Z,80.20
2022-08-31T11:31:08.477Z,80.40
2022-08-31T11:33:36.111Z,80.30
2022-08-31T11:36:07.626Z,80.60
2022-08-31T11:38:54.563Z,80.60
2022-08-31T11:41:36.761Z,80.60
2022-08-31T11:44:04.652Z,80.70
2022-08-31T11:46:33.997Z,80.50
2022-08-31T11:49:00.907Z,80.80
2022-08-31T11:51:41.177Z,80.80
2022-08-31T11:54:14.228Z,81.00
2022-08-31T11:56:44.223Z,81.20
2022-08-31T11:59:32.552Z,81.30
2022-08-31T12:02:21.488Z,81.40
2022-08-31T12:04:53.234Z,81.50
2022-08-31T12:07:29.899Z,81.60
2022-08-31T12:10:24.051Z,81.60
2022-08-31T12:13:31.180Z,81.80
2022-08-31T12:16:19.577Z,81.90
2022-08-31T12:19:13.111Z,81.80
2022-08-31T12:22:05.101Z,81.90
2022-08-31T12:24:49.000Z,82.10
2022-08-31T12:27:54.182Z,82.10
2022-08-31T12:30:26.544Z,82.20
2022-08-31T12:33:02.360Z,82.20
2022-08-31T12:35:30.788Z,82.30
2022-08-31T12:37:58.462Z,82.50
2022-08-31T12:40:25.825Z,82.50
2022-08-31T12:42:57.221Z,82.60
2022-08-31T12:45:40.749Z,82.70
2022-08-31T12:48:31.963Z,82.60
2022-08-31T12:51:32.300Z,82.50
2022-08-31T12:54:20.729Z,82.50
2022-08-31T12:56:58.771Z,82.70
2022-08-31T12:59:57.492Z,82.60
2022-08-31T13:02:20.584Z,82.80
2022-08-31T13:04:47.719Z,82.70
2022-08-31T13:07:29.842Z,82.80
2022-08-31T13:10:09.314Z,83.00
2022-08-31T13:12:37.072Z,83.10
2022-08-31T13:15:04.750Z,83.20
2022-08-31T13:17:36.471Z,83.00
2022-08-31T13:20:07.168Z,82.80
2022-08-31T13:22:41.163Z,83.00
2022-08-31T13:25:25.633Z,83.20
2022-08-31T13:27:53.122Z,83.10
2022-08-31T13:30:21.530Z,83.30
2022-08-31T13:32:52.644Z,84.10
2022-08-31T13:35:21.317Z,83.90
2022-08-31T13:38:06.000Z,86.30
2022-08-31T13:40:35.605Z,85.90
2022-08-31T13:43:02.768Z,85.90
2022-08-31T13:45:34.709Z,85.60
2022-08-31T13:48:03.001Z,86.00
2022-08-31T13:50:52.039Z,86.90
2022-08-31T13:53:39.639Z,88.10
2022-08-31T13:56:54.482Z,89.00
2022-08-31T13:59:24.309Z,89.20
2022-08-31T14:02:11.652Z,89.60
2022-08-31T14:05:00.020Z,89.60
2022-08-31T14:07:50.682Z,90.20
2022-08-31T14:10:20.565Z,90.10
2022-08-31T14:12:53.331Z,89.60
2022-08-31T14:15:38.446Z,90.60
2022-08-31T14:18:25.809Z,90.10
2022-08-31T14:21:26.922Z,89.80
2022-08-31T14:24:02.067Z,90.10
2022-08-31T14:26:31.559Z,89.60
2022-08-31T14:29:01.629Z,88.60
2022-08-31T14:31:33.963Z,88.60
2022-08-31T14:34:22.655Z,87.50
2022-08-31T14:36:56.633Z,88.20
2022-08-31T14:39:26.753Z,86.50
2022-08-31T14:41:55.797Z,86.90
2022-08-31T14:44:28.158Z,86.70
2022-08-31T14:46:56.260Z,87.10
2022-08-31T14:49:24.190Z,86.80
2022-08-31T14:51:51.394Z,86.80
2022-08-31T14:54:18.584Z,85.30
2022-08-31T14:56:49.072Z,84.50
2022-08-31T14:59:19.186Z,84.00
2022-08-31T15:01:49.382Z,83.20
2022-08-31T15:04:18.755Z,82.60
2022-08-31T15:07:06.553Z,82.30
2022-08-31T15:09:41.064Z,82.20
2022-08-31T15:12:08.448Z,81.60
2022-08-31T15:14:37.105Z,81.00
2022-08-31T15:17:06.769Z,81.20
2022-08-31T15:19:38.616Z,81.80
2022-08-31T15:22:09.508Z,81.50
2022-08-31T15:24:45.136Z,81.90
2022-08-31T15:27:14.709Z,82.20
2022-08-31T15:29:43.234Z,82.80
2022-08-31T15:32:10.429Z,82.70
2022-08-31T15:34:37.713Z,82.20
2022-08-31T15:37:05.708Z,82.30
2022-08-31T15:39:35.669Z,82.30
2022-08-31T15:42:04.989Z,82.00
2022-08-31T15:44:33.520Z,82.60
2022-08-31T15:47:21.716Z,82.30
2022-08-31T15:49:48.484Z,82.80
2022-08-31T15:52:15.457Z,82.90
2022-08-31T15:54:42.324Z,83.20
2022-08-31T15:57:11.285Z,82.70
2022-08-31T15:59:43.006Z,83.10
2022-08-31T16:02:11.310Z,82.70
2022-08-31T16:04:42.044Z,82.60
2022-08-31T16:07:09.418Z,82.60
2022-08-31T16:09:37.352Z,81.70
2022-08-31T16:12:04.313Z,81.80
2022-08-31T16:14:31.599Z,81.30
2022-08-31T16:16:59.734Z,80.90
2022-08-31T16:19:34.959Z,81.20
2022-08-31T16:22:03.132Z,80.30
2022-08-31T16:24:35.106Z,79.80
2022-08-31T16:27:01.999Z,79.50
2022-08-31T16:29:29.679Z,71.50
2022-08-31T16:31:56.557Z,66.80
2022-08-31T16:34:24.106Z,63.00
2022-08-31T16:36:51.653Z,63.00
2022-08-31T16:39:18.857Z,62.50
2022-08-31T16:41:45.916Z,65.00
2022-08-31T16:44:20.518Z,63.10
2022-08-31T16:46:47.493Z,63.60
2022-08-31T16:49:32.800Z,63.90
2022-08-31T16:52:10.996Z,62.40
2022-08-31T16:54:42.689Z,61.80
2022-08-31T16:57:10.507Z,61.80
2022-08-31T16:59:37.323Z,61.50
2022-08-31T17:02:04.204Z,62.10
2022-08-31T17:07:18.365Z,60.70
2022-08-31T17:09:45.510Z,61.50
2022-08-31T17:12:15.300Z,60.60
2022-08-31T17:14:46.590Z,59.90
2022-08-31T17:17:15.392Z,60.80
2022-08-31T17:19:44.116Z,61.10
2022-08-31T17:22:16.945Z,61.40
2022-08-31T17:24:46.668Z,61.90
2022-08-31T17:27:18.450Z,63.20
2022-08-31T17:29:48.197Z,63.60
2022-08-31T17:32:18.965Z,65.10
2022-08-31T17:34:49.495Z,65.90
2022-08-31T17:37:16.537Z,66.00
2022-08-31T17:39:44.118Z,65.50
2022-08-31T17:42:11.217Z,66.00
2022-08-31T17:44:38.082Z,66.90
2022-08-31T17:47:05.504Z,67.70
2022-08-31T17:49:36.526Z,68.60
2022-08-31T17:52:07.889Z,68.90
2022-08-31T17:54:35.816Z,69.20
2022-08-31T17:57:03.237Z,69.20
2022-08-31T17:59:32.177Z,69.80
2022-08-31T18:02:00.843Z,70.10
2022-08-31T18:04:28.369Z,70.40
2022-08-31T18:06:55.213Z,70.70
2022-08-31T18:09:27.050Z,71.00
2022-08-31T18:11:54.112Z,71.50
2022-08-31T18:14:25.549Z,71.90
2022-08-31T18:16:53.297Z,72.40
2022-08-31T18:19:27.675Z,72.70
2022-08-31T18:21:58.557Z,73.10
2022-08-31T18:24:25.478Z,73.50
2022-08-31T18:26:52.463Z,72.70
2022-08-31T18:29:23.903Z,65.60
2022-08-31T18:31:53.864Z,66.70
2022-08-31T18:34:23.006Z,64.90
2022-08-31T18:36:50.996Z,65.50
2022-08-31T18:39:40.773Z,65.70
2022-08-31T18:42:26.960Z,67.30
2022-08-31T18:45:12.257Z,68.90
2022-08-31T18:47:39.220Z,70.60
2022-08-31T18:50:06.362Z,72.20
2022-08-31T18:52:33.379Z,73.50
2022-08-31T18:55:00.399Z,75.30
2022-08-31T18:57:27.765Z,75.90
2022-08-31T18:59:54.639Z,76.80
2022-08-31T19:02:22.901Z,76.50
2022-08-31T19:04:50.949Z,76.50
2022-08-31T19:07:18.046Z,76.80
2022-08-31T19:09:45.070Z,77.00
2022-08-31T19:12:16.255Z,77.50
2022-08-31T19:14:45.094Z,77.70
2022-08-31T19:17:12.085Z,78.10
2022-08-31T19:19:39.629Z,78.50
2022-08-31T19:22:06.401Z,79.00
2022-08-31T19:24:33.321Z,79.80
2022-08-31T19:27:01.032Z,80.50
2022-08-31T19:29:31.231Z,80.90
2022-08-31T19:31:59.408Z,80.00
2022-08-31T19:34:31.391Z,79.50
2022-08-31T19:36:58.626Z,79.20
2022-08-31T19:39:27.796Z,79.30
2022-08-31T19:41:56.316Z,79.20
2022-08-31T19:44:23.313Z,78.70
2022-08-31T19:46:53.277Z,80.90
2022-08-31T19:49:20.604Z,80.30
2022-08-31T19:51:51.771Z,80.60
2022-08-31T19:54:19.606Z,80.40
2022-08-31T19:56:46.532Z,79.10
2022-08-31T19:59:18.373Z,79.20
2022-08-31T20:01:47.627Z,79.20
2022-08-31T20:04:17.043Z,79.10
2022-08-31T20:06:45.352Z,79.00
2022-08-31T20:09:12.335Z,79.00
2022-08-31T20:11:39.238Z,79.00
2022-08-31T20:14:06.488Z,78.80
2022-08-31T20:16:36.158Z,78.70
2022-08-31T20:19:04.068Z,79.00
2022-08-31T20:21:32.775Z,78.90
2022-08-31T20:24:02.882Z,78.80
2022-08-31T20:26:33.141Z,79.20
2022-08-31T20:29:05.541Z,79.10
2022-08-31T20:31:32.850Z,79.30
2022-08-31T20:34:00.492Z,79.50
2022-08-31T20:36:29.106Z,79.50
2022-08-31T20:39:02.163Z,79.90
2022-08-31T20:41:32.285Z,80.00
2022-08-31T20:44:01.272Z,80.30
2022-08-31T20:46:46.466Z,80.50
2022-08-31T20:49:26.941Z,80.80
2022-08-31T20:51:55.023Z,80.90
2022-08-31T20:54:23.161Z,80.30
2022-08-31T20:56:51.154Z,80.20
2022-08-31T20:59:18.864Z,80.30
2022-08-31T21:01:46.031Z,80.30
2022-08-31T21:04:12.826Z,80.10
2022-08-31T21:06:40.203Z,80.20
2022-08-31T21:09:08.195Z,80.00
2022-08-31T21:11:40.588Z,79.50
2022-08-31T21:14:07.816Z,79.20
2022-08-31T21:16:35.809Z,80.30
2022-08-31T21:19:03.599Z,79.80
2022-08-31T21:21:31.031Z,79.50
2022-08-31T21:23:58.240Z,79.20
2022-08-31T21:26:26.701Z,79.10
2022-08-31T21:28:54.526Z,79.20
2022-08-31T21:31:28.640Z,79.10
2022-08-31T21:33:59.356Z,79.20
2022-08-31T21:36:26.734Z,79.70
2022-08-31T21:38:54.747Z,79.50
2022-08-31T21:41:22.771Z,79.40
2022-08-31T21:43:49.750Z,79.50
2022-08-31T21:46:21.454Z,79.40
2022-08-31T21:48:48.663Z,79.30
2022-08-31T21:51:37.055Z,79.20
2022-08-31T21:54:06.217Z,79.30
2022-08-31T21:56:36.873Z,79.30
2022-08-31T21:59:06.836Z,79.40
2022-08-31T22:01:33.945Z,79.50
2022-08-31T22:04:00.932Z,79.50
2022-08-31T22:06:30.991Z,79.80
2022-08-31T22:09:06.886Z,80.00
2022-08-31T22:11:37.398Z,79.80
2022-08-31T22:14:05.159Z,79.40
2022-08-31T22:16:32.607Z,79.20
2022-08-31T22:19:02.140Z,79.10
2022-08-31T22:21:32.025Z,79.10
2022-08-31T22:24:01.008Z,79.10
2022-08-31T22:26:29.448Z,79.20
2022-08-31T22:28:56.249Z,79.40
2022-08-31T22:31:25.241Z,79.50
2022-08-31T22:33:52.238Z,79.50
2022-08-31T22:36:31.517Z,79.50
2022-08-31T22:39:07.339Z,79.90
2022-08-31T22:41:37.536Z,80.60
2022-08-31T22:44:06.366Z,80.70
2022-08-31T22:46:33.353Z,81.00
2022-08-31T22:49:00.197Z,81.30
2022-08-31T22:51:27.454Z,81.80
2022-08-31T22:53:54.211Z,81.90
2022-08-31T22:56:26.270Z,81.50
2022-08-31T22:58:57.492Z,81.10
2022-08-31T23:01:26.710Z,81.30
2022-08-31T23:03:57.512Z,81.20
2022-08-31T23:06:24.958Z,81.10
2022-08-31T23:08:52.987Z,80.70
2022-08-31T23:11:20.320Z,80.60
2022-08-31T23:13:55.493Z,80.60
2022-08-31T23:16:27.605Z,80.30
2022-08-31T23:18:57.655Z,80.00
2022-08-31T23:21:25.296Z,80.00
2022-08-31T23:23:53.092Z,80.90
2022-08-31T23:26:21.108Z,80.10
2022-08-31T23:28:47.879Z,80.20
2022-08-31T23:31:14.820Z,80.10
2022-08-31T23:33:47.148Z,80.20
2022-08-31T23:36:13.951Z,80.20
2022-08-31T23:38:42.662Z,80.30
2022-08-31T23:41:09.893Z,80.20
2022-08-31T23:43:40.784Z,80.30
2022-08-31T23:46:07.606Z,79.90
2022-08-31T23:48:34.395Z,79.90
2022-08-31T23:51:02.338Z,79.10
2022-08-31T23:53:29.120Z,79.40
2022-08-31T23:55:56.470Z,79.30
2022-08-31T23:58:25.051Z,79.50
